sensor_id;sensor_type;location;lat;lon;timestamp;P1;durP1;ratioP1;P2;durP2;ratioP2
1164;SDS011;571;50.930;6.926;2022-08-19T04:01:07;16.43;;;14.67;;
1164;SDS011;571;50.930;6.926;2022-08-19T04:03:41;26.80;;;17.60;;
1164;SDS011;571;50.930;6.926;2022-08-19T04:06:32;20.13;;;14.53;;
1164;SDS011;571;50.930;6.926;2022-08-19T04:09:12;20.00;;;15.53;;
1164;SDS011;571;50.930;6.926;2022-08-19T04:11:43;21.37;;;16.87;;
1164;SDS011;571;50.930;6.926;2022-08-19T04:14:13;17.47;;;15.47;;
1164;SDS011;571;50.930;6.926;2022-08-19T04:16:42;22.90;;;14.93;;
1164;SDS011;571;50.930;6.926;2022-08-19T04:19:09;18.40;;;16.50;;
1164;SDS011;571;50.930;6.926;2022-08-19T04:21:37;22.10;;;19.83;;
1164;SDS011;571;50.930;6.926;2022-08-19T04:24:04;19.10;;;17.20;;
1164;SDS011;571;50.930;6.926;2022-08-19T04:26:32;23.43;;;17.47;;
1164;SDS011;571;50.930;6.926;2022-08-19T04:29:03;21.73;;;19.53;;
1164;SDS011;571;50.930;6.926;2022-08-19T04:31:32;21.17;;;17.80;;
1164;SDS011;571;50.930;6.926;2022-08-19T04:34:02;18.50;;;16.60;;
1164;SDS011;571;50.930;6.926;2022-08-19T04:36:32;18.87;;;16.80;;
1164;SDS011;571;50.930;6.926;2022-08-19T04:39:00;17.57;;;15.73;;
1164;SDS011;571;50.930;6.926;2022-08-19T04:41:29;21.93;;;17.30;;
1164;SDS011;571;50.930;6.926;2022-08-19T04:44:14;19.20;;;15.77;;
1164;SDS011;571;50.930;6.926;2022-08-19T04:46:43;19.33;;;17.40;;
1164;SDS011;571;50.930;6.926;2022-08-19T04:49:11;25.00;;;21.10;;
1164;SDS011;571;50.930;6.926;2022-08-19T04:51:39;26.20;;;22.27;;
1164;SDS011;571;50.930;6.926;2022-08-19T04:54:07;23.10;;;20.67;;
1164;SDS011;571;50.930;6.926;2022-08-19T04:56:34;23.57;;;21.27;;
1164;SDS011;571;50.930;6.926;2022-08-19T04:59:01;24.60;;;21.93;;
1164;SDS011;571;50.930;6.926;2022-08-19T05:01:29;26.87;;;23.73;;
1164;SDS011;571;50.930;6.926;2022-08-19T05:03:58;26.03;;;23.20;;
1164;SDS011;571;50.930;6.926;2022-08-19T05:06:27;27.97;;;24.97;;
1164;SDS011;571;50.930;6.926;2022-08-19T05:08:57;28.53;;;25.73;;
1164;SDS011;571;50.930;6.926;2022-08-19T05:11:25;31.10;;;26.60;;
1164;SDS011;571;50.930;6.926;2022-08-19T05:13:53;31.27;;;28.07;;
1164;SDS011;571;50.930;6.926;2022-08-19T05:16:21;29.30;;;26.47;;
1164;SDS011;571;50.930;6.926;2022-08-19T05:18:49;33.43;;;29.93;;
1164;SDS011;571;50.930;6.926;2022-08-19T05:21:35;31.87;;;28.67;;
1164;SDS011;571;50.930;6.926;2022-08-19T05:24:20;31.07;;;27.87;;
1164;SDS011;571;50.930;6.926;2022-08-19T05:26:49;32.97;;;29.77;;
1164;SDS011;571;50.930;6.926;2022-08-19T05:29:17;31.23;;;28.03;;
1164;SDS011;571;50.930;6.926;2022-08-19T05:31:46;31.80;;;28.50;;
1164;SDS011;571;50.930;6.926;2022-08-19T05:34:14;33.07;;;29.77;;
1164;SDS011;571;50.930;6.926;2022-08-19T05:36:43;38.73;;;34.53;;
1164;SDS011;571;50.930;6.926;2022-08-19T05:39:12;35.87;;;31.63;;
1164;SDS011;571;50.930;6.926;2022-08-19T05:41:40;35.00;;;31.30;;
1164;SDS011;571;50.930;6.926;2022-08-19T05:44:08;36.93;;;32.17;;
1164;SDS011;571;50.930;6.926;2022-08-19T05:46:35;35.20;;;31.13;;
1164;SDS011;571;50.930;6.926;2022-08-19T05:49:03;34.60;;;31.30;;
1164;SDS011;571;50.930;6.926;2022-08-19T05:51:31;32.90;;;29.30;;
1164;SDS011;571;50.930;6.926;2022-08-19T05:54:00;33.70;;;29.57;;
1164;SDS011;571;50.930;6.926;2022-08-19T05:56:27;39.03;;;32.27;;
1164;SDS011;571;50.930;6.926;2022-08-19T05:58:55;32.83;;;29.00;;
1164;SDS011;571;50.930;6.926;2022-08-19T06:01:23;33.83;;;30.07;;
1164;SDS011;571;50.930;6.926;2022-08-19T06:03:51;36.20;;;32.30;;
1164;SDS011;571;50.930;6.926;2022-08-19T06:06:18;36.13;;;32.40;;
1164;SDS011;571;50.930;6.926;2022-08-19T06:08:46;33.27;;;29.90;;
1164;SDS011;571;50.930;6.926;2022-08-19T06:11:17;31.13;;;27.77;;
1164;SDS011;571;50.930;6.926;2022-08-19T06:13:46;36.30;;;30.47;;
1164;SDS011;571;50.930;6.926;2022-08-19T06:16:15;34.90;;;31.17;;
1164;SDS011;571;50.930;6.926;2022-08-19T06:18:45;30.07;;;26.77;;
1164;SDS011;571;50.930;6.926;2022-08-19T06:21:12;35.73;;;29.23;;
1164;SDS011;571;50.930;6.926;2022-08-19T06:23:39;33.00;;;29.57;;
1164;SDS011;571;50.930;6.926;2022-08-19T06:26:06;32.83;;;29.47;;
1164;SDS011;571;50.930;6.926;2022-08-19T06:28:38;33.93;;;30.47;;
1164;SDS011;571;50.930;6.926;2022-08-19T06:31:07;34.70;;;30.03;;
1164;SDS011;571;50.930;6.926;2022-08-19T06:33:34;33.47;;;29.87;;
1164;SDS011;571;50.930;6.926;2022-08-19T06:36:02;35.50;;;30.70;;
1164;SDS011;571;50.930;6.926;2022-08-19T06:38:29;32.47;;;28.50;;
1164;SDS011;571;50.930;6.926;2022-08-19T06:40:59;35.13;;;30.60;;
1164;SDS011;571;50.930;6.926;2022-08-19T06:43:27;32.20;;;28.00;;
1164;SDS011;571;50.930;6.926;2022-08-19T06:45:55;36.90;;;29.13;;
1164;SDS011;571;50.930;6.926;2022-08-19T06:48:23;31.33;;;28.23;;
1164;SDS011;571;50.930;6.926;2022-08-19T06:50:50;39.10;;;28.20;;
1164;SDS011;571;50.930;6.926;2022-08-19T06:53:17;33.03;;;25.90;;
1164;SDS011;571;50.930;6.926;2022-08-19T06:55:44;35.20;;;30.80;;
1164;SDS011;571;50.930;6.926;2022-08-19T06:58:11;35.33;;;31.10;;
1164;SDS011;571;50.930;6.926;2022-08-19T07:00:37;29.60;;;26.40;;
1164;SDS011;571;50.930;6.926;2022-08-19T07:03:06;33.60;;;30.17;;
1164;SDS011;571;50.930;6.926;2022-08-19T07:05:37;32.13;;;28.83;;
1164;SDS011;571;50.930;6.926;2022-08-19T07:08:05;30.83;;;27.43;;
1164;SDS011;571;50.930;6.926;2022-08-19T07:10:32;37.00;;;28.87;;
1164;SDS011;571;50.930;6.926;2022-08-19T07:13:00;30.27;;;27.03;;
1164;SDS011;571;50.930;6.926;2022-08-19T07:15:26;34.03;;;30.33;;
1164;SDS011;571;50.930;6.926;2022-08-19T07:17:53;32.20;;;26.33;;
1164;SDS011;571;50.930;6.926;2022-08-19T07:20:21;39.20;;;30.17;;
1164;SDS011;571;50.930;6.926;2022-08-19T07:22:48;32.47;;;28.97;;
1164;SDS011;571;50.930;6.926;2022-08-19T07:25:16;31.40;;;28.10;;
1164;SDS011;571;50.930;6.926;2022-08-19T07:27:43;33.13;;;27.50;;
1164;SDS011;571;50.930;6.926;2022-08-19T07:30:10;29.20;;;26.07;;
1164;SDS011;571;50.930;6.926;2022-08-19T07:32:38;29.33;;;25.00;;
1164;SDS011;571;50.930;6.926;2022-08-19T07:35:05;28.17;;;25.27;;
1164;SDS011;571;50.930;6.926;2022-08-19T07:37:35;30.43;;;27.23;;
1164;SDS011;571;50.930;6.926;2022-08-19T07:40:04;35.70;;;26.80;;
1164;SDS011;571;50.930;6.926;2022-08-19T07:42:32;36.27;;;28.00;;
1164;SDS011;571;50.930;6.926;2022-08-19T07:44:59;31.50;;;28.10;;
1164;SDS011;571;50.930;6.926;2022-08-19T07:47:26;35.23;;;27.90;;
1164;SDS011;571;50.930;6.926;2022-08-19T07:49:53;31.37;;;28.00;;
1164;SDS011;571;50.930;6.926;2022-08-19T07:52:20;37.37;;;33.47;;
1164;SDS011;571;50.930;6.926;2022-08-19T07:54:48;33.67;;;29.97;;
1164;SDS011;571;50.930;6.926;2022-08-19T07:57:15;36.47;;;30.83;;
1164;SDS011;571;50.930;6.926;2022-08-19T07:59:44;33.83;;;30.23;;
1164;SDS011;571;50.930;6.926;2022-08-19T08:02:10;31.10;;;26.00;;
1164;SDS011;571;50.930;6.926;2022-08-19T08:04:37;32.40;;;28.20;;
1164;SDS011;571;50.930;6.926;2022-08-19T08:07:22;34.63;;;30.63;;
1164;SDS011;571;50.930;6.926;2022-08-19T08:10:19;39.00;;;34.80;;
1164;SDS011;571;50.930;6.926;2022-08-19T08:12:45;40.07;;;35.17;;
1164;SDS011;571;50.930;6.926;2022-08-19T08:15:13;35.33;;;31.57;;
1164;SDS011;571;50.930;6.926;2022-08-19T08:17:44;39.20;;;34.20;;
1164;SDS011;571;50.930;6.926;2022-08-19T08:20:11;38.87;;;31.90;;
1164;SDS011;571;50.930;6.926;2022-08-19T08:22:42;35.17;;;30.33;;
1164;SDS011;571;50.930;6.926;2022-08-19T08:25:29;34.73;;;30.93;;
1164;SDS011;571;50.930;6.926;2022-08-19T08:27:57;40.60;;;33.93;;
1164;SDS011;571;50.930;6.926;2022-08-19T08:30:26;44.07;;;32.97;;
1164;SDS011;571;50.930;6.926;2022-08-19T08:32:54;38.17;;;34.07;;
1164;SDS011;571;50.930;6.926;2022-08-19T08:35:21;39.90;;;34.40;;
1164;SDS011;571;50.930;6.926;2022-08-19T08:37:50;40.57;;;34.50;;
1164;SDS011;571;50.930;6.926;2022-08-19T08:40:19;39.73;;;33.90;;
1164;SDS011;571;50.930;6.926;2022-08-19T08:42:55;39.13;;;33.80;;
1164;SDS011;571;50.930;6.926;2022-08-19T08:45:27;39.60;;;34.07;;
1164;SDS011;571;50.930;6.926;2022-08-19T08:47:55;41.93;;;35.27;;
1164;SDS011;571;50.930;6.926;2022-08-19T08:50:28;40.53;;;34.13;;
1164;SDS011;571;50.930;6.926;2022-08-19T08:53:00;46.73;;;37.60;;
1164;SDS011;571;50.930;6.926;2022-08-19T08:55:29;46.70;;;37.77;;
1164;SDS011;571;50.930;6.926;2022-08-19T08:57:59;45.77;;;36.27;;
1164;SDS011;571;50.930;6.926;2022-08-19T09:00:29;40.63;;;32.97;;
1164;SDS011;571;50.930;6.926;2022-08-19T09:02:57;47.47;;;37.80;;
1164;SDS011;571;50.930;6.926;2022-08-19T09:05:26;43.83;;;34.80;;
1164;SDS011;571;50.930;6.926;2022-08-19T09:08:04;41.30;;;34.07;;
1164;SDS011;571;50.930;6.926;2022-08-19T09:10:34;40.97;;;32.40;;
1164;SDS011;571;50.930;6.926;2022-08-19T09:13:10;39.30;;;29.87;;
1164;SDS011;571;50.930;6.926;2022-08-19T09:15:45;36.27;;;31.17;;
1164;SDS011;571;50.930;6.926;2022-08-19T09:18:15;31.97;;;27.70;;
1164;SDS011;571;50.930;6.926;2022-08-19T09:20:43;28.10;;;24.83;;
1164;SDS011;571;50.930;6.926;2022-08-19T09:23:11;36.67;;;29.10;;
1164;SDS011;571;50.930;6.926;2022-08-19T09:25:38;31.70;;;27.10;;
1164;SDS011;571;50.930;6.926;2022-08-19T09:28:07;33.20;;;29.17;;
1164;SDS011;571;50.930;6.926;2022-08-19T09:30:36;33.78;;;29.55;;
1164;SDS011;571;50.930;6.926;2022-08-19T09:33:06;34.23;;;30.60;;
1164;SDS011;571;50.930;6.926;2022-08-19T09:35:33;30.70;;;27.47;;
1164;SDS011;571;50.930;6.926;2022-08-19T09:38:00;30.73;;;26.10;;
1164;SDS011;571;50.930;6.926;2022-08-19T09:40:27;27.70;;;24.70;;
1164;SDS011;571;50.930;6.926;2022-08-19T09:42:55;31.30;;;25.13;;
1164;SDS011;571;50.930;6.926;2022-08-19T09:45:24;30.77;;;24.30;;
1164;SDS011;571;50.930;6.926;2022-08-19T09:47:51;27.93;;;22.47;;
1164;SDS011;571;50.930;6.926;2022-08-19T09:50:19;23.93;;;21.07;;
1164;SDS011;571;50.930;6.926;2022-08-19T09:52:47;24.90;;;22.30;;
1164;SDS011;571;50.930;6.926;2022-08-19T09:55:14;25.33;;;21.40;;
1164;SDS011;571;50.930;6.926;2022-08-19T09:57:42;27.03;;;22.80;;
1164;SDS011;571;50.930;6.926;2022-08-19T10:00:09;21.97;;;19.77;;
1164;SDS011;571;50.930;6.926;2022-08-19T10:02:38;28.00;;;23.83;;
1164;SDS011;571;50.930;6.926;2022-08-19T10:05:05;22.33;;;19.83;;
1164;SDS011;571;50.930;6.926;2022-08-19T10:07:52;19.37;;;17.33;;
1164;SDS011;571;50.930;6.926;2022-08-19T10:10:19;20.90;;;17.67;;
1164;SDS011;571;50.930;6.926;2022-08-19T10:12:46;26.57;;;21.80;;
1164;SDS011;571;50.930;6.926;2022-08-19T10:15:13;21.77;;;19.67;;
1164;SDS011;571;50.930;6.926;2022-08-19T10:17:42;17.37;;;15.10;;
1164;SDS011;571;50.930;6.926;2022-08-19T10:20:10;18.37;;;15.93;;
1164;SDS011;571;50.930;6.926;2022-08-19T10:22:36;17.40;;;14.23;;
1164;SDS011;571;50.930;6.926;2022-08-19T10:25:04;14.27;;;13.07;;
1164;SDS011;571;50.930;6.926;2022-08-19T10:27:32;16.70;;;15.03;;
1164;SDS011;571;50.930;6.926;2022-08-19T10:29:59;19.07;;;17.17;;
1164;SDS011;571;50.930;6.926;2022-08-19T10:32:26;22.23;;;16.33;;
1164;SDS011;571;50.930;6.926;2022-08-19T10:34:55;21.83;;;19.53;;
1164;SDS011;571;50.930;6.926;2022-08-19T10:37:22;17.70;;;15.57;;
1164;SDS011;571;50.930;6.926;2022-08-19T10:39:49;18.50;;;16.37;;
1164;SDS011;571;50.930;6.926;2022-08-19T10:42:16;16.37;;;14.73;;
1164;SDS011;571;50.930;6.926;2022-08-19T12:08:32;13.07;;;10.63;;
1164;SDS011;571;50.930;6.926;2022-08-19T12:15:00;12.00;;;10.80;;
1164;SDS011;571;50.930;6.926;2022-08-19T12:17:33;13.43;;;12.23;;
1164;SDS011;571;50.930;6.926;2022-08-19T12:20:00;11.67;;;10.50;;
1164;SDS011;571;50.930;6.926;2022-08-19T12:22:27;10.50;;;9.60;;
1164;SDS011;571;50.930;6.926;2022-08-19T12:24:55;10.53;;;9.63;;
1164;SDS011;571;50.930;6.926;2022-08-19T12:27:25;12.03;;;10.87;;
1164;SDS011;571;50.930;6.926;2022-08-19T12:29:52;11.00;;;9.77;;
1164;SDS011;571;50.930;6.926;2022-08-19T12:32:19;11.80;;;10.70;;
1164;SDS011;571;50.930;6.926;2022-08-19T12:34:46;9.67;;;8.87;;
1164;SDS011;571;50.930;6.926;2022-08-19T12:37:13;10.27;;;9.23;;
1164;SDS011;571;50.930;6.926;2022-08-19T12:39:41;9.87;;;8.97;;
1164;SDS011;571;50.930;6.926;2022-08-19T12:42:10;12.10;;;10.33;;
1164;SDS011;571;50.930;6.926;2022-08-19T12:44:39;11.20;;;10.27;;
1164;SDS011;571;50.930;6.926;2022-08-19T12:47:07;10.60;;;9.60;;
1164;SDS011;571;50.930;6.926;2022-08-19T12:49:36;10.93;;;9.90;;
1164;SDS011;571;50.930;6.926;2022-08-19T12:52:04;10.53;;;9.53;;
1164;SDS011;571;50.930;6.926;2022-08-19T12:54:32;10.70;;;9.70;;
1164;SDS011;571;50.930;6.926;2022-08-19T12:57:00;9.73;;;8.83;;
1164;SDS011;571;50.930;6.926;2022-08-19T12:59:32;9.00;;;8.20;;
1164;SDS011;571;50.930;6.926;2022-08-19T13:01:59;11.03;;;10.10;;
1164;SDS011;571;50.930;6.926;2022-08-19T13:04:26;12.10;;;11.00;;
1164;SDS011;571;50.930;6.926;2022-08-19T13:06:53;10.40;;;9.43;;
1164;SDS011;571;50.930;6.926;2022-08-19T13:09:19;9.67;;;8.67;;
1164;SDS011;571;50.930;6.926;2022-08-19T13:11:46;9.50;;;8.70;;
1164;SDS011;571;50.930;6.926;2022-08-19T13:14:13;9.43;;;8.30;;
1164;SDS011;571;50.930;6.926;2022-08-19T13:16:41;10.20;;;8.93;;
1164;SDS011;571;50.930;6.926;2022-08-19T13:19:08;8.60;;;7.90;;
1164;SDS011;571;50.930;6.926;2022-08-19T13:21:35;12.90;;;11.73;;
1164;SDS011;571;50.930;6.926;2022-08-19T13:24:04;10.63;;;9.63;;
1164;SDS011;571;50.930;6.926;2022-08-19T13:26:31;10.83;;;9.83;;
1164;SDS011;571;50.930;6.926;2022-08-19T13:28:58;16.17;;;14.53;;
1164;SDS011;571;50.930;6.926;2022-08-19T13:31:44;18.43;;;12.60;;
1164;SDS011;571;50.930;6.926;2022-08-19T13:34:30;9.87;;;8.97;;
1164;SDS011;571;50.930;6.926;2022-08-19T13:37:00;8.23;;;7.53;;
1164;SDS011;571;50.930;6.926;2022-08-19T13:39:28;7.63;;;6.93;;
1164;SDS011;571;50.930;6.926;2022-08-19T13:41:57;8.87;;;8.03;;
1164;SDS011;571;50.930;6.926;2022-08-19T13:44:26;9.33;;;8.00;;
1164;SDS011;571;50.930;6.926;2022-08-19T13:46:59;9.20;;;8.27;;
1164;SDS011;571;50.930;6.926;2022-08-19T13:49:35;9.17;;;7.50;;
1164;SDS011;571;50.930;6.926;2022-08-19T13:52:29;7.63;;;6.90;;
1164;SDS011;571;50.930;6.926;2022-08-19T13:55:06;9.47;;;7.40;;
1164;SDS011;571;50.930;6.926;2022-08-19T13:57:57;9.90;;;7.13;;
1164;SDS011;571;50.930;6.926;2022-08-19T14:00:56;7.63;;;6.93;;
1164;SDS011;571;50.930;6.926;2022-08-19T14:03:56;9.23;;;8.43;;
1164;SDS011;571;50.930;6.926;2022-08-19T14:06:28;7.70;;;7.00;;
1164;SDS011;571;50.930;6.926;2022-08-19T14:08:55;6.20;;;5.70;;
1164;SDS011;571;50.930;6.926;2022-08-19T14:11:22;6.67;;;5.80;;
1164;SDS011;571;50.930;6.926;2022-08-19T14:16:51;8.20;;;6.40;;
1164;SDS011;571;50.930;6.926;2022-08-19T14:19:24;8.73;;;7.93;;
1164;SDS011;571;50.930;6.926;2022-08-19T14:21:52;7.27;;;6.60;;
1164;SDS011;571;50.930;6.926;2022-08-19T14:24:26;8.57;;;6.77;;
1164;SDS011;571;50.930;6.926;2022-08-19T14:26:53;8.40;;;6.60;;
1164;SDS011;571;50.930;6.926;2022-08-19T14:29:20;6.80;;;6.30;;
1164;SDS011;571;50.930;6.926;2022-08-19T14:31:46;7.67;;;6.97;;
1164;SDS011;571;50.930;6.926;2022-08-19T14:34:13;8.97;;;6.03;;
1164;SDS011;571;50.930;6.926;2022-08-19T14:36:42;6.00;;;5.50;;
1164;SDS011;571;50.930;6.926;2022-08-19T14:39:10;6.50;;;5.50;;
1164;SDS011;571;50.930;6.926;2022-08-19T14:41:39;6.70;;;5.37;;
1164;SDS011;571;50.930;6.926;2022-08-19T14:44:06;12.70;;;7.50;;
1164;SDS011;571;50.930;6.926;2022-08-19T14:46:35;9.60;;;6.90;;
1164;SDS011;571;50.930;6.926;2022-08-19T14:49:01;7.33;;;6.53;;
1164;SDS011;571;50.930;6.926;2022-08-19T14:51:28;6.33;;;5.67;;
1164;SDS011;571;50.930;6.926;2022-08-19T14:53:56;6.20;;;5.60;;
1164;SDS011;571;50.930;6.926;2022-08-19T14:56:24;7.13;;;6.53;;
1164;SDS011;571;50.930;6.926;2022-08-19T14:58:53;5.83;;;5.30;;
1164;SDS011;571;50.930;6.926;2022-08-19T15:01:24;8.47;;;4.80;;
1164;SDS011;571;50.930;6.926;2022-08-19T15:03:51;8.57;;;5.13;;
1164;SDS011;571;50.930;6.926;2022-08-19T15:06:19;5.63;;;3.73;;
1164;SDS011;571;50.930;6.926;2022-08-19T15:08:47;4.83;;;4.23;;
1164;SDS011;571;50.930;6.926;2022-08-19T15:11:18;4.43;;;4.00;;
1164;SDS011;571;50.930;6.926;2022-08-19T15:13:48;5.90;;;4.53;;
1164;SDS011;571;50.930;6.926;2022-08-19T15:16:15;4.80;;;4.37;;
1164;SDS011;571;50.930;6.926;2022-08-19T15:18:43;5.50;;;5.03;;
1164;SDS011;571;50.930;6.926;2022-08-19T15:21:11;3.67;;;3.37;;
1164;SDS011;571;50.930;6.926;2022-08-19T15:23:39;6.33;;;4.33;;
1164;SDS011;571;50.930;6.926;2022-08-19T15:26:06;4.60;;;3.67;;
1164;SDS011;571;50.930;6.926;2022-08-19T15:28:34;4.33;;;3.97;;
1164;SDS011;571;50.930;6.926;2022-08-19T15:31:01;5.50;;;3.80;;
1164;SDS011;571;50.930;6.926;2022-08-19T15:33:30;9.17;;;3.83;;
1164;SDS011;571;50.930;6.926;2022-08-19T15:35:57;3.90;;;3.60;;
1164;SDS011;571;50.930;6.926;2022-08-19T15:38:24;6.47;;;4.17;;
1164;SDS011;571;50.930;6.926;2022-08-19T15:40:51;3.77;;;3.43;;
1164;SDS011;571;50.930;6.926;2022-08-19T15:43:41;3.90;;;3.10;;
1164;SDS011;571;50.930;6.926;2022-08-19T15:46:08;4.43;;;3.23;;
1164;SDS011;571;50.930;6.926;2022-08-19T15:48:35;4.20;;;3.53;;
1164;SDS011;571;50.930;6.926;2022-08-19T15:51:02;7.53;;;3.10;;
1164;SDS011;571;50.930;6.926;2022-08-19T15:53:29;3.95;;;3.25;;
1164;SDS011;571;50.930;6.926;2022-08-19T15:55:56;4.60;;;3.20;;
1164;SDS011;571;50.930;6.926;2022-08-19T15:58:23;14.73;;;4.03;;
1164;SDS011;571;50.930;6.926;2022-08-19T16:01:08;4.97;;;3.33;;
1164;SDS011;571;50.930;6.926;2022-08-19T16:03:53;5.87;;;3.70;;
1164;SDS011;571;50.930;6.926;2022-08-19T16:06:39;3.70;;;3.40;;
1164;SDS011;571;50.930;6.926;2022-08-19T16:09:07;5.63;;;4.00;;
1164;SDS011;571;50.930;6.926;2022-08-19T16:11:34;5.60;;;2.97;;
1164;SDS011;571;50.930;6.926;2022-08-19T16:14:01;5.90;;;3.77;;
1164;SDS011;571;50.930;6.926;2022-08-19T16:16:31;5.70;;;3.70;;
1164;SDS011;571;50.930;6.926;2022-08-19T16:18:59;6.67;;;3.87;;
1164;SDS011;571;50.930;6.926;2022-08-19T16:21:28;5.27;;;3.20;;
1164;SDS011;571;50.930;6.926;2022-08-19T16:23:57;3.90;;;3.03;;
1164;SDS011;571;50.930;6.926;2022-08-19T16:26:25;4.37;;;3.60;;
1164;SDS011;571;50.930;6.926;2022-08-19T16:28:53;4.43;;;3.40;;
1164;SDS011;571;50.930;6.926;2022-08-19T16:31:24;5.87;;;3.60;;
1164;SDS011;571;50.930;6.926;2022-08-19T16:33:53;5.47;;;3.00;;
1164;SDS011;571;50.930;6.926;2022-08-19T16:36:20;3.73;;;3.00;;
1164;SDS011;571;50.930;6.926;2022-08-19T16:38:48;4.43;;;3.23;;
1164;SDS011;571;50.930;6.926;2022-08-19T16:41:17;3.60;;;2.20;;
1164;SDS011;571;50.930;6.926;2022-08-19T16:43:45;3.97;;;2.93;;
1164;SDS011;571;50.930;6.926;2022-08-19T16:46:16;2.60;;;2.40;;
1164;SDS011;571;50.930;6.926;2022-08-19T16:48:44;4.80;;;2.20;;
1164;SDS011;571;50.930;6.926;2022-08-19T16:51:13;2.40;;;2.20;;
1164;SDS011;571;50.930;6.926;2022-08-19T16:53:41;7.90;;;2.50;;
1164;SDS011;571;50.930;6.926;2022-08-19T16:56:09;2.00;;;1.80;;
1164;SDS011;571;50.930;6.926;2022-08-19T16:58:36;3.80;;;2.43;;
1164;SDS011;571;50.930;6.926;2022-08-19T17:01:04;3.17;;;2.50;;
1164;SDS011;571;50.930;6.926;2022-08-19T17:03:32;2.60;;;2.37;;
1164;SDS011;571;50.930;6.926;2022-08-19T17:06:00;2.57;;;2.37;;
1164;SDS011;571;50.930;6.926;2022-08-19T17:08:29;2.60;;;2.40;;
1164;SDS011;571;50.930;6.926;2022-08-19T17:10:58;3.90;;;2.60;;
1164;SDS011;571;50.930;6.926;2022-08-19T17:13:26;2.50;;;2.30;;
1164;SDS011;571;50.930;6.926;2022-08-19T17:15:53;2.40;;;2.20;;
1164;SDS011;571;50.930;6.926;2022-08-19T17:18:21;3.03;;;2.70;;
1164;SDS011;571;50.930;6.926;2022-08-19T17:20:48;5.23;;;2.60;;
1164;SDS011;571;50.930;6.926;2022-08-19T17:23:16;6.30;;;2.23;;
1164;SDS011;571;50.930;6.926;2022-08-19T17:25:45;4.70;;;2.63;;
1164;SDS011;571;50.930;6.926;2022-08-19T17:28:13;2.60;;;2.40;;
1164;SDS011;571;50.930;6.926;2022-08-19T17:30:42;3.80;;;2.50;;
1164;SDS011;571;50.930;6.926;2022-08-19T17:33:09;7.33;;;3.00;;
1164;SDS011;571;50.930;6.926;2022-08-19T17:35:36;3.20;;;2.47;;
1164;SDS011;571;50.930;6.926;2022-08-19T17:38:08;3.53;;;2.83;;
1164;SDS011;571;50.930;6.926;2022-08-19T17:40:38;4.60;;;3.30;;
1164;SDS011;571;50.930;6.926;2022-08-19T17:43:07;5.20;;;3.13;;
1164;SDS011;571;50.930;6.926;2022-08-19T17:45:34;4.53;;;3.10;;
1164;SDS011;571;50.930;6.926;2022-08-19T17:48:01;5.00;;;2.80;;
1164;SDS011;571;50.930;6.926;2022-08-19T17:50:29;4.03;;;3.20;;
1164;SDS011;571;50.930;6.926;2022-08-19T17:52:56;5.30;;;3.57;;
1164;SDS011;571;50.930;6.926;2022-08-19T17:55:24;5.87;;;3.20;;
1164;SDS011;571;50.930;6.926;2022-08-19T17:57:51;4.60;;;3.80;;
1164;SDS011;571;50.930;6.926;2022-08-19T18:00:19;4.10;;;3.30;;
1164;SDS011;571;50.930;6.926;2022-08-19T18:02:48;6.40;;;3.50;;
1164;SDS011;571;50.930;6.926;2022-08-19T18:05:17;5.40;;;3.50;;
1164;SDS011;571;50.930;6.926;2022-08-19T18:07:44;5.27;;;3.60;;
1164;SDS011;571;50.930;6.926;2022-08-19T18:10:11;6.67;;;3.40;;
1164;SDS011;571;50.930;6.926;2022-08-19T18:12:38;5.07;;;3.40;;
1164;SDS011;571;50.930;6.926;2022-08-19T18:15:06;6.30;;;3.70;;
1164;SDS011;571;50.930;6.926;2022-08-19T18:17:35;6.83;;;3.47;;
1164;SDS011;571;50.930;6.926;2022-08-19T18:20:03;5.33;;;3.13;;
1164;SDS011;571;50.930;6.926;2022-08-19T18:22:33;4.97;;;3.43;;
1164;SDS011;571;50.930;6.926;2022-08-19T18:25:02;7.13;;;2.87;;
1164;SDS011;571;50.930;6.926;2022-08-19T18:27:32;6.10;;;3.70;;
1164;SDS011;571;50.930;6.926;2022-08-19T18:29:59;4.20;;;2.90;;
1164;SDS011;571;50.930;6.926;2022-08-19T18:32:27;3.80;;;3.00;;
1164;SDS011;571;50.930;6.926;2022-08-19T18:34:59;4.63;;;3.10;;
1164;SDS011;571;50.930;6.926;2022-08-19T18:37:26;3.83;;;3.50;;
1164;SDS011;571;50.930;6.926;2022-08-19T18:39:52;4.07;;;3.30;;
1164;SDS011;571;50.930;6.926;2022-08-19T18:42:40;7.50;;;3.63;;
1164;SDS011;571;50.930;6.926;2022-08-19T18:45:25;4.40;;;3.70;;
1164;SDS011;571;50.930;6.926;2022-08-19T18:48:09;6.27;;;3.10;;
1164;SDS011;571;50.930;6.926;2022-08-19T18:50:56;5.77;;;3.10;;
1164;SDS011;571;50.930;6.926;2022-08-19T18:53:25;6.37;;;4.50;;
1164;SDS011;571;50.930;6.926;2022-08-19T18:55:53;4.23;;;3.70;;
1164;SDS011;571;50.930;6.926;2022-08-19T18:58:20;4.30;;;3.10;;
1164;SDS011;571;50.930;6.926;2022-08-19T19:00:47;6.00;;;4.03;;
1164;SDS011;571;50.930;6.926;2022-08-19T19:03:14;5.60;;;3.33;;
1164;SDS011;571;50.930;6.926;2022-08-19T19:05:40;3.27;;;3.07;;
1164;SDS011;571;50.930;6.926;2022-08-19T19:08:09;7.50;;;4.00;;
1164;SDS011;571;50.930;6.926;2022-08-19T19:10:37;4.50;;;2.67;;
1164;SDS011;571;50.930;6.926;2022-08-19T19:13:06;4.10;;;2.73;;
1164;SDS011;571;50.930;6.926;2022-08-19T19:15:32;5.30;;;3.20;;
1164;SDS011;571;50.930;6.926;2022-08-19T19:18:00;3.67;;;2.87;;
1164;SDS011;571;50.930;6.926;2022-08-19T19:20:27;8.07;;;3.40;;
1164;SDS011;571;50.930;6.926;2022-08-19T19:22:55;3.43;;;2.40;;
1164;SDS011;571;50.930;6.926;2022-08-19T19:25:23;4.13;;;2.70;;
1164;SDS011;571;50.930;6.926;2022-08-19T19:27:51;4.50;;;2.90;;
1164;SDS011;571;50.930;6.926;2022-08-19T19:30:18;2.80;;;2.17;;
1164;SDS011;571;50.930;6.926;2022-08-19T19:32:49;4.77;;;2.20;;
1164;SDS011;571;50.930;6.926;2022-08-19T19:35:18;2.70;;;1.67;;
1164;SDS011;571;50.930;6.926;2022-08-19T19:37:45;3.20;;;1.67;;
1164;SDS011;571;50.930;6.926;2022-08-19T19:40:16;2.07;;;1.83;;
1164;SDS011;571;50.930;6.926;2022-08-19T19:42:44;2.00;;;1.50;;
1164;SDS011;571;50.930;6.926;2022-08-19T19:45:12;5.87;;;3.00;;
1164;SDS011;571;50.930;6.926;2022-08-19T19:47:39;3.90;;;2.00;;
1164;SDS011;571;50.930;6.926;2022-08-19T19:50:08;2.87;;;2.57;;
1164;SDS011;571;50.930;6.926;2022-08-19T19:52:35;2.97;;;1.80;;
1164;SDS011;571;50.930;6.926;2022-08-19T19:55:02;2.80;;;2.30;;
1164;SDS011;571;50.930;6.926;2022-08-19T19:57:30;1.70;;;1.60;;
1164;SDS011;571;50.930;6.926;2022-08-19T19:59:58;2.10;;;1.80;;
1164;SDS011;571;50.930;6.926;2022-08-19T20:02:24;3.00;;;1.90;;
1164;SDS011;571;50.930;6.926;2022-08-19T20:04:51;3.20;;;1.93;;
1164;SDS011;571;50.930;6.926;2022-08-19T20:07:21;2.87;;;2.50;;
1164;SDS011;571;50.930;6.926;2022-08-19T20:10:08;4.07;;;2.27;;
1164;SDS011;571;50.930;6.926;2022-08-19T20:12:34;5.40;;;3.37;;
1164;SDS011;571;50.930;6.926;2022-08-19T20:15:02;3.03;;;2.73;;
1164;SDS011;571;50.930;6.926;2022-08-19T20:17:30;3.00;;;2.70;;
1164;SDS011;571;50.930;6.926;2022-08-19T20:19:57;3.07;;;2.73;;
1164;SDS011;571;50.930;6.926;2022-08-19T20:22:24;13.30;;;2.70;;
1164;SDS011;571;50.930;6.926;2022-08-19T20:24:50;1.70;;;1.60;;
1164;SDS011;571;50.930;6.926;2022-08-19T20:27:18;2.17;;;1.90;;
1164;SDS011;571;50.930;6.926;2022-08-19T20:29:47;3.80;;;2.67;;
1164;SDS011;571;50.930;6.926;2022-08-19T20:32:15;3.00;;;2.27;;
1164;SDS011;571;50.930;6.926;2022-08-19T20:34:42;3.77;;;2.70;;
1164;SDS011;571;50.930;6.926;2022-08-19T20:37:12;2.80;;;2.60;;
1164;SDS011;571;50.930;6.926;2022-08-19T20:39:39;2.37;;;2.17;;
1164;SDS011;571;50.930;6.926;2022-08-19T20:42:06;2.70;;;2.00;;
1164;SDS011;571;50.930;6.926;2022-08-19T20:44:33;2.83;;;1.80;;
1164;SDS011;571;50.930;6.926;2022-08-19T20:47:01;2.20;;;2.00;;
1164;SDS011;571;50.930;6.926;2022-08-19T20:49:29;2.80;;;1.67;;
1164;SDS011;571;50.930;6.926;2022-08-19T20:51:56;2.43;;;2.03;;
1164;SDS011;571;50.930;6.926;2022-08-19T20:54:23;7.83;;;2.20;;
1164;SDS011;571;50.930;6.926;2022-08-19T20:56:50;2.30;;;2.10;;
1164;SDS011;571;50.930;6.926;2022-08-19T20:59:17;1.93;;;1.77;;